Time,TemperatureF,DewpointF,PressureIn,WindDirection,WindDirectionDegrees,WindSpeedMPH,WindSpeedGustMPH,Humidity,HourlyPrecipIn,Conditions,Clouds,dailyrainin,SoftwareType,DateUTC
2013-02-20 00:00:00,57.8,33.6,30.07,ENE,77,0.0,2.3,40,0.00,CLR,,0.00,WeatherDisplay:10.37,2013-02-20 06:00:00,
2013-02-20 00:05:00,57.7,33.5,30.08,ENE,76,0.2,2.3,40,0.00,CLR,,0.00,WeatherDisplay:10.37,2013-02-20 06:05:00,
2013-02-20 00:10:00,57.7,33.5,30.08,ENE,75,0.9,2.3,40,0.00,CLR,,0.00,WeatherDisplay:10.37,2013-02-20 06:10:00,
2013-02-20 00:15:00,57.7,33.5,30.07,North,355,0.0,0.0,40,0.00,CLR,,0.00,WeatherDisplay:10.37,2013-02-20 06:15:00,
2013-02-20 00:20:00,57.6,33.4,30.07,East,80,2.1,4.6,40,0.00,CLR,,0.00,WeatherDisplay:10.37,2013-02-20 06:20:00,
2013-02-20 00:25:00,57.6,34.1,30.07,ENE,74,1.5,2.3,41,0.00,CLR,,0.00,WeatherDisplay:10.37,2013-02-20 06:25:00,
2013-02-20 00:30:00,57.6,34.1,30.06,NE,54,1.0,3.5,41,0.00,CLR,,0.00,WeatherDisplay:10.37,2013-02-20 06:30:00,
2013-02-20 00:35:00,57.5,34.6,30.06,ESE,120,1.3,3.5,42,0.00,CLR,,0.00,WeatherDisplay:10.37,2013-02-20 06:35:00,
2013-02-20 00:40:00,57.5,34.0,30.05,NE,35,0.2,1.2,41,0.00,CLR,,0.00,WeatherDisplay:10.37,2013-02-20 06:40:00,
2013-02-20 00:45:00,57.4,34.5,30.06,NE,44,0.3,2.0,42,0.00,CLR,,0.00,WeatherDisplay:10.37,2013-02-20 06:45:00,
2013-02-20 00:50:00,57.3,35.0,30.05,ESE,115,1.3,3.5,43,0.00,CLR,,0.00,WeatherDisplay:10.37,2013-02-20 06:50:00,
2013-02-20 00:55:00,57.2,34.9,30.05,NE,55,0.5,2.0,43,0.00,CLR,,0.00,WeatherDisplay:10.37,2013-02-20 06:55:00,
2013-02-20 01:00:00,57.0,34.7,30.04,East,82,1.1,3.5,43,0.00,CLR,,0.00,WeatherDisplay:10.37,2013-02-20 07:00:00,
2013-02-20 01:05:00,56.9,34.0,30.04,East,89,0.3,2.3,42,0.00,CLR,,0.00,WeatherDisplay:10.37,2013-02-20 07:05:00,
2013-02-20 01:10:00,56.8,33.3,30.03,ESE,120,2.8,5.8,41,0.00,CLR,,0.00,WeatherDisplay:10.37,2013-02-20 07:10:00,
2013-02-20 01:15:00,56.7,34.4,30.03,ENE,76,0.4,2.0,43,0.00,CLR,,0.00,WeatherDisplay:10.37,2013-02-20 07:15:00,
2013-02-20 01:20:00,56.6,33.8,30.04,ESE,119,0.1,3.5,42,0.00,CLR,,0.00,WeatherDisplay:10.37,2013-02-20 07:20:00,
2013-02-20 01:25:00,56.5,34.3,30.05,SSW,196,0.2,3.5,43,0.00,CLR,,0.00,WeatherDisplay:10.37,2013-02-20 07:25:00,
2013-02-20 01:30:00,56.4,34.2,30.06,East,84,0.1,0.0,43,0.00,CLR,,0.00,WeatherDisplay:10.37,2013-02-20 07:30:00,
2013-02-20 01:35:00,56.4,34.2,30.06,ENE,61,0.0,2.0,43,0.00,CLR,,0.00,WeatherDisplay:10.37,2013-02-20 07:35:00,
2013-02-20 01:40:00,56.3,34.1,30.06,NE,47,0.0,0.0,43,0.00,CLR,,0.00,WeatherDisplay:10.37,2013-02-20 07:40:00,
2013-02-20 01:45:00,56.3,34.6,30.07,NE,47,0.1,1.2,44,0.00,CLR,,0.00,WeatherDisplay:10.37,2013-02-20 07:45:00,
2013-02-20 01:50:00,56.2,34.6,30.05,NE,47,0.3,1.2,44,0.00,CLR,,0.00,WeatherDisplay:10.37,2013-02-20 07:50:00,
2013-02-20 01:55:00,56.2,35.1,30.04,ENE,70,0.0,0.0,45,0.00,CLR,,0.00,WeatherDisplay:10.37,2013-02-20 07:55:00,
2013-02-20 02:00:00,56.1,35.6,30.03,NE,51,0.4,3.5,46,0.00,CLR,,0.00,WeatherDisplay:10.37,2013-02-20 08:00:00,
2013-02-20 02:05:00,56.0,35.5,30.03,NE,50,0.0,0.0,46,0.00,CLR,,0.00,WeatherDisplay:10.37,2013-02-20 08:05:00,
2013-02-20 02:10:00,55.9,35.4,30.03,NE,50,0.0,0.0,46,0.00,CLR,,0.00,WeatherDisplay:10.37,2013-02-20 08:10:00,
2013-02-20 02:15:00,55.8,35.9,30.02,East,79,0.7,3.5,47,0.00,CLR,,0.00,WeatherDisplay:10.37,2013-02-20 08:15:00,
2013-02-20 02:20:00,55.7,36.3,30.02,ENE,74,0.0,0.0,48,0.00,CLR,,0.00,WeatherDisplay:10.37,2013-02-20 08:20:00,
2013-02-20 02:25:00,55.7,35.8,30.01,NE,36,0.1,1.2,47,0.00,CLR,,0.00,WeatherDisplay:10.37,2013-02-20 08:25:00,
2013-02-20 02:30:00,55.7,36.3,30.03,NE,36,0.0,0.0,48,0.00,CLR,,0.00,WeatherDisplay:10.37,2013-02-20 08:30:00,
2013-02-20 02:35:00,55.6,36.7,30.03,NE,46,0.0,0.0,49,0.00,CLR,,0.00,WeatherDisplay:10.37,2013-02-20 08:35:00,
2013-02-20 02:40:00,55.6,37.7,30.03,East,82,0.0,3.5,51,0.00,CLR,,0.00,WeatherDisplay:10.37,2013-02-20 08:40:00,
2013-02-20 02:45:00,55.5,37.7,30.02,WNW,293,0.3,2.3,51,0.00,CLR,,0.00,WeatherDisplay:10.37,2013-02-20 08:45:00,
2013-02-20 02:50:00,55.5,37.7,30.01,East,82,1.2,3.5,51,0.00,CLR,,0.00,WeatherDisplay:10.37,2013-02-20 08:50:00,
2013-02-20 02:55:00,55.5,38.1,30.01,East,101,0.2,2.0,52,0.00,CLR,,0.00,WeatherDisplay:10.37,2013-02-20 08:55:00,
2013-02-20 03:00:00,55.4,38.1,30.00,ENE,68,1.8,3.5,52,0.00,CLR,,0.00,WeatherDisplay:10.37,2013-02-20 09:00:00,
2013-02-20 03:05:00,55.4,38.1,30.01,East,83,0.0,2.3,52,0.00,CLR,,0.00,WeatherDisplay:10.37,2013-02-20 09:05:00,
2013-02-20 03:10:00,55.3,38.0,30.01,SE,132,0.0,3.5,52,0.00,CLR,,0.00,WeatherDisplay:10.37,2013-02-20 09:10:00,
2013-02-20 03:15:00,55.3,38.4,30.01,NE,52,0.1,3.5,53,0.00,CLR,,0.00,WeatherDisplay:10.37,2013-02-20 09:15:00,
2013-02-20 03:20:00,55.3,38.4,30.01,SSE,167,0.8,4.6,53,0.00,CLR,,0.00,WeatherDisplay:10.37,2013-02-20 09:20:00,
2013-02-20 03:25:00,55.3,38.9,30.02,SE,136,0.0,0.0,54,0.00,CLR,,0.00,WeatherDisplay:10.37,2013-02-20 09:25:00,
2013-02-20 03:30:00,55.3,38.9,30.02,SE,136,0.0,0.0,54,0.00,CLR,,0.00,WeatherDisplay:10.37,2013-02-20 09:30:00,
2013-02-20 03:35:00,55.2,39.3,30.01,East,92,0.0,0.0,55,0.00,CLR,,0.00,WeatherDisplay:10.37,2013-02-20 09:35:00,
2013-02-20 03:40:00,55.2,39.8,30.01,East,84,0.0,2.3,56,0.00,CLR,,0.00,WeatherDisplay:10.37,2013-02-20 09:40:00,
2013-02-20 03:45:00,55.2,39.8,30.02,East,84,0.0,0.0,56,0.00,CLR,,0.00,WeatherDisplay:10.37,2013-02-20 09:45:00,
2013-02-20 03:50:00,55.2,40.2,30.02,ENE,67,0.1,2.3,57,0.00,CLR,,0.00,WeatherDisplay:10.37,2013-02-20 09:50:00,
2013-02-20 03:55:00,55.2,40.7,30.02,ENE,67,0.1,0.0,58,0.00,CLR,,0.00,WeatherDisplay:10.37,2013-02-20 09:55:00,
2013-02-20 04:00:00,55.2,41.1,30.00,ESE,112,2.7,3.5,59,0.00,CLR,,0.00,WeatherDisplay:10.37,2013-02-20 10:00:00,
2013-02-20 04:05:00,55.2,41.1,29.99,ESE,113,1.7,3.5,59,0.00,CLR,,0.00,WeatherDisplay:10.37,2013-02-20 10:05:00,
2013-02-20 04:10:00,55.1,41.5,29.99,ESE,111,1.9,4.6,60,0.00,CLR,,0.00,WeatherDisplay:10.37,2013-02-20 10:10:00,
2013-02-20 04:15:00,55.0,42.2,29.99,SSE,157,1.6,4.6,62,0.00,CLR,,0.00,WeatherDisplay:10.37,2013-02-20 10:15:00,
2013-02-20 04:20:00,55.0,42.2,29.99,SE,129,4.0,5.0,62,0.00,CLR,,0.00,WeatherDisplay:10.37,2013-02-20 10:20:00,
2013-02-20 04:25:00,54.9,42.5,30.00,South,174,1.3,2.3,63,0.00,CLR,,0.00,WeatherDisplay:10.37,2013-02-20 10:25:00,
2013-02-20 04:30:00,54.8,42.9,30.01,South,173,1.8,4.6,64,0.00,CLR,,0.00,WeatherDisplay:10.37,2013-02-20 10:30:00,
2013-02-20 04:35:00,54.8,43.3,30.01,SSE,153,0.1,1.2,65,0.00,CLR,,0.00,WeatherDisplay:10.37,2013-02-20 10:35:00,
2013-02-20 04:40:00,54.7,43.2,30.01,East,100,0.7,2.3,65,0.00,CLR,,0.00,WeatherDisplay:10.37,2013-02-20 10:40:00,
2013-02-20 04:45:00,54.5,43.0,30.00,SE,124,1.0,2.0,65,0.00,CLR,,0.00,WeatherDisplay:10.37,2013-02-20 10:45:00,
2013-02-20 04:50:00,54.4,42.9,30.01,ENE,78,0.3,2.0,65,0.00,CLR,,0.00,WeatherDisplay:10.37,2013-02-20 10:50:00,
2013-02-20 04:55:00,54.3,42.8,29.99,ENE,74,1.8,4.6,65,0.00,CLR,,0.00,WeatherDisplay:10.37,2013-02-20 10:55:00,
2013-02-20 05:00:00,54.2,42.7,29.99,ENE,74,1.2,2.3,65,0.00,CLR,,0.00,WeatherDisplay:10.37,2013-02-20 11:00:00,
2013-02-20 05:05:00,54.2,42.7,29.99,East,94,0.4,4.6,65,0.00,CLR,,0.00,WeatherDisplay:10.37,2013-02-20 11:05:00,
2013-02-20 05:10:00,54.1,42.6,29.99,ENE,74,1.8,3.5,65,0.00,CLR,,0.00,WeatherDisplay:10.37,2013-02-20 11:10:00,
2013-02-20 05:15:00,54.0,42.5,29.99,ENE,67,0.4,3.5,65,0.00,CLR,,0.00,WeatherDisplay:10.37,2013-02-20 11:15:00,
2013-02-20 05:20:00,53.9,42.4,29.99,East,98,0.4,4.6,65,0.00,CLR,,0.00,WeatherDisplay:10.37,2013-02-20 11:20:00,
2013-02-20 05:25:00,53.9,42.4,29.99,NE,55,1.6,4.6,65,0.00,CLR,,0.00,WeatherDisplay:10.37,2013-02-20 11:25:00,
2013-02-20 05:30:00,53.8,42.3,29.98,East,92,1.3,2.0,65,0.00,CLR,,0.00,WeatherDisplay:10.37,2013-02-20 11:30:00,
2013-02-20 05:35:00,53.7,42.2,29.98,ENE,76,0.6,2.3,65,0.00,CLR,,0.00,WeatherDisplay:10.37,2013-02-20 11:35:00,
2013-02-20 05:40:00,53.7,42.2,29.99,ENE,77,0.9,3.5,65,0.00,CLR,,0.00,WeatherDisplay:10.37,2013-02-20 11:40:00,
2013-02-20 05:45:00,53.5,42.0,29.99,ENE,66,2.2,5.8,65,0.00,CLR,,0.00,WeatherDisplay:10.37,2013-02-20 11:45:00,
2013-02-20 05:50:00,53.4,42.3,29.98,ENE,76,1.2,3.5,66,0.00,CLR,,0.00,WeatherDisplay:10.37,2013-02-20 11:50:00,
2013-02-20 05:55:00,53.3,42.2,29.98,East,87,2.8,4.6,66,0.00,CLR,,0.00,WeatherDisplay:10.37,2013-02-20 11:55:00,
2013-02-20 06:00:00,53.2,42.1,29.97,East,79,1.1,3.5,66,0.00,CLR,,0.00,WeatherDisplay:10.37,2013-02-20 12:00:00,
2013-02-20 06:05:00,53.2,42.1,29.97,East,96,3.0,4.6,66,0.00,CLR,,0.00,WeatherDisplay:10.37,2013-02-20 12:05:00,
2013-02-20 06:10:00,53.1,42.0,29.96,East,88,0.8,3.5,66,0.00,CLR,,0.00,WeatherDisplay:10.37,2013-02-20 12:10:00,
2013-02-20 06:15:00,53.0,41.9,29.95,East,81,0.9,6.0,66,0.00,CLR,,0.00,WeatherDisplay:10.37,2013-02-20 12:15:00,
2013-02-20 06:20:00,53.0,41.9,29.94,East,85,1.8,4.0,66,0.00,CLR,,0.00,WeatherDisplay:10.37,2013-02-20 12:20:00,
2013-02-20 06:25:00,52.9,41.8,29.94,ESE,105,1.6,5.0,66,0.00,CLR,,0.00,WeatherDisplay:10.37,2013-02-20 12:25:00,
2013-02-20 06:30:00,52.8,41.7,29.93,ENE,74,2.2,5.8,66,0.00,CLR,,0.00,WeatherDisplay:10.37,2013-02-20 12:30:00,
2013-02-20 06:35:00,52.6,41.6,29.93,ENE,78,2.8,3.5,66,0.00,CLR,,0.00,WeatherDisplay:10.37,2013-02-20 12:35:00,
2013-02-20 06:40:00,52.5,41.5,29.93,ENE,65,0.0,0.0,66,0.00,CLR,,0.00,WeatherDisplay:10.37,2013-02-20 12:40:00,
2013-02-20 06:45:00,52.5,41.9,29.93,ENE,67,1.6,3.5,67,0.00,CLR,,0.00,WeatherDisplay:10.37,2013-02-20 12:45:00,
2013-02-20 06:50:00,52.5,41.9,29.93,ESE,108,0.0,6.9,67,0.00,CLR,,0.00,WeatherDisplay:10.37,2013-02-20 12:50:00,
2013-02-20 06:55:00,52.4,41.8,29.93,East,79,1.0,3.5,67,0.00,CLR,,0.00,WeatherDisplay:10.37,2013-02-20 12:55:00,
2013-02-20 07:00:00,52.4,41.8,29.93,ENE,68,2.5,3.5,67,0.00,CLR,,0.00,WeatherDisplay:10.37,2013-02-20 13:00:00,
2013-02-20 07:05:00,52.4,42.1,29.93,ENE,78,0.2,4.0,68,0.00,CLR,,0.00,WeatherDisplay:10.37,2013-02-20 13:05:00,
2013-02-20 07:10:00,52.4,42.1,29.92,NE,42,1.1,2.3,68,0.00,CLR,,0.00,WeatherDisplay:10.37,2013-02-20 13:10:00,
2013-02-20 07:15:00,52.4,42.1,29.92,North,9,1.7,4.6,68,0.00,CLR,,0.00,WeatherDisplay:10.37,2013-02-20 13:15:00,
2013-02-20 07:20:00,52.5,42.6,29.92,NE,38,0.5,3.5,69,0.00,CLR,,0.00,WeatherDisplay:10.37,2013-02-20 13:20:00,
2013-02-20 07:25:00,52.5,43.0,29.92,East,86,1.8,3.5,70,0.00,CLR,,0.00,WeatherDisplay:10.37,2013-02-20 13:25:00,
2013-02-20 07:30:00,52.6,43.1,29.92,SSE,153,1.0,2.3,70,0.00,CLR,,0.00,WeatherDisplay:10.37,2013-02-20 13:30:00,
2013-02-20 07:35:00,52.6,43.1,29.90,ENE,68,2.2,5.8,70,0.00,CLR,,0.00,WeatherDisplay:10.37,2013-02-20 13:35:00,
2013-02-20 07:40:00,52.5,43.4,29.91,NE,42,2.9,4.6,71,0.00,CLR,,0.00,WeatherDisplay:10.37,2013-02-20 13:40:00,
2013-02-20 07:45:00,52.6,43.5,29.92,ENE,69,1.5,3.5,71,0.00,CLR,,0.00,WeatherDisplay:10.37,2013-02-20 13:45:00,
2013-02-20 07:50:00,52.6,43.5,29.92,ENE,71,1.0,3.5,71,0.00,CLR,,0.00,WeatherDisplay:10.37,2013-02-20 13:50:00,
2013-02-20 07:55:00,52.6,43.8,29.92,ENE,73,0.1,2.3,72,0.00,CLR,,0.00,WeatherDisplay:10.37,2013-02-20 13:55:00,
2013-02-20 08:00:00,52.7,43.9,29.93,NE,42,0.3,0.0,72,0.00,CLR,,0.00,WeatherDisplay:10.37,2013-02-20 14:00:00,
2013-02-20 08:05:00,52.8,44.0,29.93,East,82,0.5,2.3,72,0.00,CLR,,0.00,WeatherDisplay:10.37,2013-02-20 14:05:00,
2013-02-20 08:10:00,52.8,44.0,29.93,East,93,0.1,1.2,72,0.00,CLR,,0.00,WeatherDisplay:10.37,2013-02-20 14:10:00,
2013-02-20 08:15:00,52.9,44.1,29.93,ENE,57,0.9,2.3,72,0.00,CLR,,0.00,WeatherDisplay:10.37,2013-02-20 14:15:00,
2013-02-20 08:20:00,53.0,44.6,29.93,East,90,0.5,3.5,73,0.00,CLR,,0.00,WeatherDisplay:10.37,2013-02-20 14:20:00,
2013-02-20 08:25:00,53.0,44.6,29.93,East,84,0.3,0.0,73,0.00,CLR,,0.00,WeatherDisplay:10.37,2013-02-20 14:25:00,
2013-02-20 08:30:00,53.1,45.0,29.93,East,88,0.1,1.2,74,0.00,CLR,,0.00,WeatherDisplay:10.37,2013-02-20 14:30:00,
2013-02-20 08:35:00,53.2,45.1,29.94,ENE,63,1.2,4.6,74,0.00,CLR,,0.00,WeatherDisplay:10.37,2013-02-20 14:35:00,
2013-02-20 08:40:00,53.3,45.6,29.94,NE,51,0.0,1.2,75,0.00,CLR,,0.00,WeatherDisplay:10.37,2013-02-20 14:40:00,
2013-02-20 08:45:00,53.4,45.7,29.94,East,79,0.4,1.2,75,0.00,CLR,,0.00,WeatherDisplay:10.37,2013-02-20 14:45:00,
2013-02-20 08:50:00,53.5,46.1,29.94,East,79,0.0,0.0,76,0.00,CLR,,0.00,WeatherDisplay:10.37,2013-02-20 14:50:00,
2013-02-20 08:55:00,53.6,45.9,29.95,East,97,0.3,1.2,75,0.00,CLR,,0.00,WeatherDisplay:10.37,2013-02-20 14:55:00,
2013-02-20 09:00:00,53.7,46.3,29.95,East,97,0.0,0.0,76,0.00,CLR,,0.00,WeatherDisplay:10.37,2013-02-20 15:00:00,
2013-02-20 09:05:00,53.8,46.4,29.95,NNW,343,0.2,2.3,76,0.00,CLR,,0.00,WeatherDisplay:10.37,2013-02-20 15:05:00,
2013-02-20 09:10:00,53.9,46.5,29.95,NNW,343,0.0,0.0,76,0.00,CLR,,0.00,WeatherDisplay:10.37,2013-02-20 15:10:00,
2013-02-20 09:15:00,54.1,46.7,29.95,North,349,0.0,0.0,76,0.00,CLR,,0.00,WeatherDisplay:10.37,2013-02-20 15:15:00,
2013-02-20 09:20:00,54.1,46.7,29.94,North,349,0.0,0.0,76,0.00,CLR,,0.00,WeatherDisplay:10.37,2013-02-20 15:20:00,
2013-02-20 09:25:00,54.2,46.8,29.94,North,5,0.0,1.2,76,0.00,CLR,,0.00,WeatherDisplay:10.37,2013-02-20 15:25:00,
2013-02-20 09:30:00,54.3,46.9,29.94,NW,313,0.3,1.0,76,0.00,CLR,,0.00,WeatherDisplay:10.37,2013-02-20 15:30:00,
2013-02-20 09:35:00,54.3,46.9,29.95,NW,313,0.0,0.0,76,0.00,CLR,,0.00,WeatherDisplay:10.37,2013-02-20 15:35:00,
2013-02-20 09:40:00,54.4,47.3,29.95,NW,313,0.2,3.5,77,0.00,CLR,,0.00,WeatherDisplay:10.37,2013-02-20 15:40:00,
2013-02-20 09:45:00,54.5,47.8,29.97,NW,313,0.0,0.0,78,0.00,CLR,,0.00,WeatherDisplay:10.37,2013-02-20 15:45:00,
2013-02-20 09:50:00,54.5,48.8,29.97,NW,313,0.0,0.0,81,0.00,CLR,,0.00,WeatherDisplay:10.37,2013-02-20 15:50:00,
2013-02-20 09:55:00,54.4,49.0,29.97,NW,313,0.2,1.2,82,0.00,CLR,,0.00,WeatherDisplay:10.37,2013-02-20 15:55:00,
2013-02-20 10:00:00,54.4,49.3,29.97,NW,313,0.0,0.0,83,0.00,CLR,,0.00,WeatherDisplay:10.37,2013-02-20 16:00:00,
2013-02-20 10:05:00,54.2,49.5,29.96,NW,313,0.0,0.0,84,0.00,CLR,,0.00,WeatherDisplay:10.37,2013-02-20 16:05:00,
2013-02-20 10:10:00,54.1,49.4,29.97,NW,313,0.0,0.0,84,0.01,RA,,0.01,WeatherDisplay:10.37,2013-02-20 16:10:00,
2013-02-20 10:15:00,54.0,49.6,29.97,NW,313,0.0,0.0,85,0.02,RA,,0.02,WeatherDisplay:10.37,2013-02-20 16:15:00,
2013-02-20 10:20:00,53.9,49.8,29.97,NW,313,0.0,0.0,86,0.02,RA,,0.02,WeatherDisplay:10.37,2013-02-20 16:20:00,
2013-02-20 10:25:00,53.9,49.8,29.96,NNW,336,0.0,1.2,86,0.02,,,0.02,WeatherDisplay:10.37,2013-02-20 16:25:00,
2013-02-20 10:30:00,53.7,50.2,29.95,NNW,336,0.0,0.0,88,0.03,RA,,0.03,WeatherDisplay:10.37,2013-02-20 16:30:00,
2013-02-20 10:35:00,53.7,50.5,29.95,ENE,78,0.0,0.0,89,0.04,RA,,0.04,WeatherDisplay:10.37,2013-02-20 16:35:00,
2013-02-20 10:40:00,53.9,50.7,29.94,ENE,78,0.0,0.0,89,0.04,RA,,0.04,WeatherDisplay:10.37,2013-02-20 16:40:00,
2013-02-20 10:45:00,54.1,51.2,29.93,East,87,1.1,3.5,90,0.04,CLR,,0.04,WeatherDisplay:10.37,2013-02-20 16:45:00,
2013-02-20 10:50:00,54.3,51.4,29.93,ENE,69,1.3,3.5,90,0.04,CLR,,0.04,WeatherDisplay:10.37,2013-02-20 16:50:00,
2013-02-20 10:55:00,54.5,51.9,29.93,ENE,70,0.0,0.0,91,0.04,CLR,,0.04,WeatherDisplay:10.37,2013-02-20 16:55:00,
2013-02-20 11:00:00,54.7,52.1,29.93,ENE,65,0.1,3.5,91,0.04,CLR,,0.04,WeatherDisplay:10.37,2013-02-20 17:00:00,
2013-02-20 11:05:00,54.8,52.2,29.92,NE,53,0.1,1.2,91,0.04,CLR,,0.04,WeatherDisplay:10.37,2013-02-20 17:05:00,
2013-02-20 11:10:00,54.9,52.6,29.91,ENE,74,0.0,1.2,92,0.03,CLR,,0.04,WeatherDisplay:10.37,2013-02-20 17:10:00,
2013-02-20 11:15:00,55.1,52.8,29.91,ENE,62,0.8,4.6,92,0.02,CLR,,0.04,WeatherDisplay:10.37,2013-02-20 17:15:00,
2013-02-20 11:20:00,55.3,53.0,29.91,ENE,72,0.1,1.2,92,0.02,CLR,,0.04,WeatherDisplay:10.37,2013-02-20 17:20:00,
2013-02-20 11:25:00,55.4,53.1,29.91,ENE,75,0.7,2.3,92,0.02,CLR,,0.04,WeatherDisplay:10.37,2013-02-20 17:25:00,
2013-02-20 11:30:00,55.5,53.2,29.91,East,95,1.7,3.5,92,0.01,CLR,,0.04,WeatherDisplay:10.37,2013-02-20 17:30:00,
2013-02-20 11:35:00,55.7,53.4,29.90,ESE,108,1.7,4.6,92,0.00,CLR,,0.04,WeatherDisplay:10.37,2013-02-20 17:35:00,
2013-02-20 11:40:00,55.7,53.4,29.90,SE,136,0.7,6.0,92,0.00,CLR,,0.04,WeatherDisplay:10.37,2013-02-20 17:40:00,
2013-02-20 11:45:00,55.8,53.5,29.90,ESE,113,1.2,3.5,92,0.00,CLR,,0.04,WeatherDisplay:10.37,2013-02-20 17:45:00,
2013-02-20 11:50:00,56.0,53.7,29.89,SE,132,0.0,1.2,92,0.00,CLR,,0.04,WeatherDisplay:10.37,2013-02-20 17:50:00,
2013-02-20 11:55:00,56.2,53.9,29.89,NE,50,0.0,1.2,92,0.00,CLR,,0.04,WeatherDisplay:10.37,2013-02-20 17:55:00,
2013-02-20 12:00:00,56.4,54.1,29.88,SE,125,0.3,2.3,92,0.00,CLR,,0.04,WeatherDisplay:10.37,2013-02-20 18:00:00,
2013-02-20 12:05:00,56.6,54.3,29.88,ENE,72,0.0,2.3,92,0.00,CLR,,0.04,WeatherDisplay:10.37,2013-02-20 18:05:00,
2013-02-20 12:10:00,56.8,54.5,29.88,ESE,115,0.0,0.0,92,0.00,CLR,,0.04,WeatherDisplay:10.37,2013-02-20 18:10:00,
2013-02-20 12:15:00,56.9,54.6,29.88,SSE,162,0.7,2.3,92,0.00,CLR,,0.04,WeatherDisplay:10.37,2013-02-20 18:15:00,
2013-02-20 12:20:00,57.0,54.7,29.88,East,97,0.4,2.0,92,0.00,CLR,,0.04,WeatherDisplay:10.37,2013-02-20 18:20:00,
2013-02-20 12:25:00,57.1,54.5,29.87,ENE,75,1.2,2.3,91,0.00,CLR,,0.04,WeatherDisplay:10.37,2013-02-20 18:25:00,
2013-02-20 12:30:00,57.3,54.7,29.86,East,99,0.3,1.0,91,0.00,CLR,,0.04,WeatherDisplay:10.37,2013-02-20 18:30:00,
2013-02-20 12:35:00,57.4,54.8,29.86,East,98,0.5,2.3,91,0.00,CLR,,0.04,WeatherDisplay:10.37,2013-02-20 18:35:00,
2013-02-20 12:40:00,57.5,54.9,29.86,SE,146,0.2,1.2,91,0.00,CLR,,0.04,WeatherDisplay:10.37,2013-02-20 18:40:00,
2013-02-20 12:45:00,57.7,55.1,29.86,East,100,0.0,1.0,91,0.00,CLR,,0.04,WeatherDisplay:10.37,2013-02-20 18:45:00,
2013-02-20 12:50:00,57.8,54.9,29.85,ENE,77,1.4,3.5,90,0.00,CLR,,0.04,WeatherDisplay:10.37,2013-02-20 18:50:00,
2013-02-20 12:55:00,57.8,54.9,29.84,SE,126,0.9,5.8,90,0.00,CLR,,0.04,WeatherDisplay:10.37,2013-02-20 18:55:00,
2013-02-20 13:00:00,58.0,54.8,29.84,NE,52,0.1,2.3,89,0.00,CLR,,0.04,WeatherDisplay:10.37,2013-02-20 19:00:00,
2013-02-20 13:05:00,58.1,54.9,29.84,NE,52,0.0,0.0,89,0.00,CLR,,0.04,WeatherDisplay:10.37,2013-02-20 19:05:00,
2013-02-20 13:10:00,58.2,55.0,29.84,SE,129,0.8,2.3,89,0.00,CLR,,0.04,WeatherDisplay:10.37,2013-02-20 19:10:00,
2013-02-20 13:15:00,58.3,55.1,29.83,ESE,123,0.8,3.5,89,0.00,CLR,,0.04,WeatherDisplay:10.37,2013-02-20 19:15:00,
2013-02-20 13:20:00,58.4,55.2,29.83,East,96,0.0,0.0,89,0.00,CLR,,0.04,WeatherDisplay:10.37,2013-02-20 19:20:00,
2013-02-20 13:25:00,58.5,55.3,29.82,SE,131,0.1,1.0,89,0.00,CLR,,0.04,WeatherDisplay:10.37,2013-02-20 19:25:00,
2013-02-20 13:30:00,58.6,55.4,29.82,ESE,116,0.3,1.2,89,0.00,CLR,,0.04,WeatherDisplay:10.37,2013-02-20 19:30:00,
2013-02-20 13:35:00,58.7,55.5,29.81,NNE,28,0.6,2.0,89,0.00,CLR,,0.04,WeatherDisplay:10.37,2013-02-20 19:35:00,
2013-02-20 13:40:00,58.9,56.0,29.81,ENE,63,0.0,0.0,90,0.00,CLR,,0.04,WeatherDisplay:10.37,2013-02-20 19:40:00,
2013-02-20 13:45:00,59.1,56.2,29.80,ESE,118,0.2,4.6,90,0.00,CLR,,0.04,WeatherDisplay:10.37,2013-02-20 19:45:00,
2013-02-20 13:50:00,59.2,56.3,29.80,ESE,107,0.0,0.0,90,0.00,CLR,,0.04,WeatherDisplay:10.37,2013-02-20 19:50:00,
2013-02-20 13:55:00,59.4,56.5,29.79,ESE,103,0.1,0.0,90,0.00,CLR,,0.04,WeatherDisplay:10.37,2013-02-20 19:55:00,
2013-02-20 14:00:00,59.5,56.6,29.79,ESE,104,0.1,0.0,90,0.00,CLR,,0.04,WeatherDisplay:10.37,2013-02-20 20:00:00,
2013-02-20 14:05:00,59.6,56.7,29.79,ENE,67,0.1,1.2,90,0.00,CLR,,0.04,WeatherDisplay:10.37,2013-02-20 20:05:00,
2013-02-20 14:10:00,59.7,56.8,29.79,East,99,0.2,3.5,90,0.00,CLR,,0.04,WeatherDisplay:10.37,2013-02-20 20:10:00,
2013-02-20 14:15:00,59.8,56.9,29.78,East,84,0.1,1.2,90,0.00,CLR,,0.04,WeatherDisplay:10.37,2013-02-20 20:15:00,
2013-02-20 14:20:00,59.9,57.0,29.78,East,84,0.0,0.0,90,0.00,CLR,,0.04,WeatherDisplay:10.37,2013-02-20 20:20:00,
2013-02-20 14:25:00,60.1,57.5,29.77,ENE,78,0.2,1.2,91,0.00,CLR,,0.04,WeatherDisplay:10.37,2013-02-20 20:25:00,
2013-02-20 14:30:00,60.3,57.7,29.77,ESE,121,0.0,0.0,91,0.00,CLR,,0.04,WeatherDisplay:10.37,2013-02-20 20:30:00,
2013-02-20 14:35:00,60.4,57.8,29.77,ENE,74,0.0,0.0,91,0.00,CLR,,0.04,WeatherDisplay:10.37,2013-02-20 20:35:00,
2013-02-20 14:40:00,60.5,57.9,29.76,NE,45,0.1,2.0,91,0.00,CLR,,0.04,WeatherDisplay:10.37,2013-02-20 20:40:00,
2013-02-20 14:45:00,60.7,58.1,29.76,ENE,73,0.5,2.3,91,0.00,CLR,,0.04,WeatherDisplay:10.37,2013-02-20 20:45:00,
2013-02-20 14:50:00,60.8,58.2,29.76,NE,56,0.3,1.2,91,0.00,CLR,,0.04,WeatherDisplay:10.37,2013-02-20 20:50:00,
2013-02-20 14:55:00,60.9,58.3,29.76,South,180,0.2,1.2,91,0.00,CLR,,0.04,WeatherDisplay:10.37,2013-02-20 20:55:00,
2013-02-20 15:00:00,61.0,58.4,29.75,NNE,28,0.3,1.2,91,0.00,CLR,,0.04,WeatherDisplay:10.37,2013-02-20 21:00:00,
2013-02-20 15:05:00,61.1,58.5,29.75,ENE,74,0.1,1.2,91,0.00,CLR,,0.04,WeatherDisplay:10.37,2013-02-20 21:05:00,
2013-02-20 15:10:00,61.3,58.7,29.75,ESE,117,0.0,4.6,91,0.00,CLR,,0.04,WeatherDisplay:10.37,2013-02-20 21:10:00,
2013-02-20 15:15:00,61.5,58.8,29.75,East,83,0.6,2.3,91,0.00,CLR,,0.04,WeatherDisplay:10.37,2013-02-20 21:15:00,
2013-02-20 15:20:00,61.6,58.9,29.75,NE,36,0.1,1.2,91,0.00,CLR,,0.04,WeatherDisplay:10.37,2013-02-20 21:20:00,
2013-02-20 15:25:00,61.7,59.0,29.75,East,84,0.0,1.2,91,0.00,CLR,,0.04,WeatherDisplay:10.37,2013-02-20 21:25:00,
2013-02-20 15:30:00,61.9,59.2,29.75,NE,53,0.3,2.3,91,0.00,CLR,,0.04,WeatherDisplay:10.37,2013-02-20 21:30:00,
2013-02-20 15:35:00,62.1,59.4,29.75,SSE,158,0.5,3.5,91,0.00,CLR,,0.04,WeatherDisplay:10.37,2013-02-20 21:35:00,
2013-02-20 15:40:00,62.2,59.5,29.74,East,101,1.0,2.3,91,0.00,CLR,,0.04,WeatherDisplay:10.37,2013-02-20 21:40:00,
2013-02-20 15:45:00,62.4,59.7,29.74,East,96,0.7,2.3,91,0.00,CLR,,0.04,WeatherDisplay:10.37,2013-02-20 21:45:00,
2013-02-20 15:50:00,62.5,59.8,29.74,East,100,0.1,0.0,91,0.00,CLR,,0.04,WeatherDisplay:10.37,2013-02-20 21:50:00,
2013-02-20 15:55:00,62.6,59.9,29.74,ENE,66,0.2,2.3,91,0.00,CLR,,0.04,WeatherDisplay:10.37,2013-02-20 21:55:00,
2013-02-20 16:00:00,62.6,59.9,29.74,ENE,74,0.0,0.0,91,0.00,CLR,,0.04,WeatherDisplay:10.37,2013-02-20 22:00:00,
2013-02-20 16:05:00,62.7,60.0,29.74,SE,132,0.9,3.5,91,0.00,CLR,,0.04,WeatherDisplay:10.37,2013-02-20 22:05:00,
2013-02-20 16:10:00,62.8,60.1,29.74,ENE,63,0.0,3.5,91,0.00,CLR,,0.04,WeatherDisplay:10.37,2013-02-20 22:10:00,
2013-02-20 16:15:00,62.8,60.1,29.74,SE,134,0.0,0.0,91,0.00,CLR,,0.04,WeatherDisplay:10.37,2013-02-20 22:15:00,
2013-02-20 16:20:00,62.8,60.1,29.74,NE,39,1.7,5.8,91,0.00,CLR,,0.04,WeatherDisplay:10.37,2013-02-20 22:20:00,
2013-02-20 16:25:00,62.7,60.0,29.74,SE,131,0.1,1.2,91,0.00,CLR,,0.04,WeatherDisplay:10.37,2013-02-20 22:25:00,
2013-02-20 16:30:00,62.7,60.0,29.74,East,92,0.3,2.3,91,0.00,CLR,,0.04,WeatherDisplay:10.37,2013-02-20 22:30:00,
2013-02-20 16:35:00,62.6,60.2,29.74,SSE,148,0.3,3.5,92,0.00,CLR,,0.04,WeatherDisplay:10.37,2013-02-20 22:35:00,
2013-02-20 16:40:00,62.5,60.1,29.73,East,93,0.0,1.2,92,0.00,CLR,,0.04,WeatherDisplay:10.37,2013-02-20 22:40:00,
2013-02-20 16:45:00,62.5,60.1,29.73,East,82,0.3,3.5,92,0.00,CLR,,0.04,WeatherDisplay:10.37,2013-02-20 22:45:00,
2013-02-20 16:50:00,62.5,60.1,29.72,ESE,104,0.1,1.2,92,0.00,CLR,,0.04,WeatherDisplay:10.37,2013-02-20 22:50:00,
2013-02-20 16:55:00,62.4,60.0,29.72,ENE,71,1.3,5.8,92,0.00,CLR,,0.04,WeatherDisplay:10.37,2013-02-20 22:55:00,
2013-02-20 17:00:00,62.4,60.0,29.71,SE,140,1.7,2.3,92,0.00,CLR,,0.04,WeatherDisplay:10.37,2013-02-20 23:00:00,
2013-02-20 17:05:00,62.3,59.9,29.71,ESE,113,1.0,5.0,92,0.00,CLR,,0.04,WeatherDisplay:10.37,2013-02-20 23:05:00,
2013-02-20 17:10:00,62.2,59.8,29.71,ESE,109,1.0,3.5,92,0.00,CLR,,0.04,WeatherDisplay:10.37,2013-02-20 23:10:00,
2013-02-20 17:15:00,62.2,59.8,29.71,East,84,0.3,1.2,92,0.00,CLR,,0.04,WeatherDisplay:10.37,2013-02-20 23:15:00,
2013-02-20 17:20:00,62.1,59.7,29.71,ESE,108,1.5,2.3,92,0.00,CLR,,0.04,WeatherDisplay:10.37,2013-02-20 23:20:00,
2013-02-20 17:25:00,61.9,59.5,29.70,ESE,104,1.7,5.8,92,0.00,CLR,,0.04,WeatherDisplay:10.37,2013-02-20 23:25:00,
2013-02-20 17:30:00,61.8,59.5,29.70,ESE,103,0.1,4.0,92,0.00,CLR,,0.04,WeatherDisplay:10.37,2013-02-20 23:30:00,
2013-02-20 17:35:00,61.7,59.4,29.70,ENE,63,1.8,4.6,92,0.00,CLR,,0.04,WeatherDisplay:10.37,2013-02-20 23:35:00,
2013-02-20 17:40:00,61.6,59.6,29.70,East,86,0.3,3.5,93,0.00,CLR,,0.04,WeatherDisplay:10.37,2013-02-20 23:40:00,
2013-02-20 17:45:00,61.6,59.3,29.70,East,87,0.1,1.2,92,0.00,CLR,,0.04,WeatherDisplay:10.37,2013-02-20 23:45:00,
2013-02-20 17:50:00,61.6,59.6,29.69,East,94,0.4,2.3,93,0.00,CLR,,0.04,WeatherDisplay:10.37,2013-02-20 23:50:00,
2013-02-20 17:55:00,61.6,59.6,29.69,ESE,107,0.8,3.5,93,0.00,CLR,,0.04,WeatherDisplay:10.37,2013-02-20 23:55:00,
2013-02-20 18:00:00,61.5,59.5,29.70,NNE,13,3.1,6.9,93,0.00,CLR,,0.04,WeatherDisplay:10.37,2013-02-21 00:00:00,
2013-02-20 18:05:00,61.5,59.5,29.70,East,94,2.4,4.6,93,0.00,CLR,,0.04,WeatherDisplay:10.37,2013-02-21 00:05:00,
2013-02-20 18:10:00,61.6,59.6,29.70,East,99,0.9,4.6,93,0.00,CLR,,0.04,WeatherDisplay:10.37,2013-02-21 00:10:00,
2013-02-20 18:15:00,61.6,59.6,29.70,ENE,76,1.1,2.3,93,0.00,CLR,,0.04,WeatherDisplay:10.37,2013-02-21 00:15:00,
2013-02-20 18:20:00,61.5,59.5,29.70,ENE,60,0.1,2.3,93,0.00,CLR,,0.04,WeatherDisplay:10.37,2013-02-21 00:20:00,
2013-02-20 18:25:00,61.5,59.5,29.70,ESE,118,0.5,4.0,93,0.00,CLR,,0.04,WeatherDisplay:10.37,2013-02-21 00:25:00,
2013-02-20 18:30:00,61.6,59.6,29.70,East,101,1.1,3.5,93,0.00,CLR,,0.04,WeatherDisplay:10.37,2013-02-21 00:30:00,
2013-02-20 18:35:00,61.6,59.6,29.70,ESE,115,0.6,1.2,93,0.00,CLR,,0.04,WeatherDisplay:10.37,2013-02-21 00:35:00,
2013-02-20 18:40:00,61.6,59.6,29.69,ESE,123,1.1,5.0,93,0.00,CLR,,0.04,WeatherDisplay:10.37,2013-02-21 00:40:00,
2013-02-20 18:45:00,61.6,59.6,29.69,East,101,1.1,4.6,93,0.00,CLR,,0.04,WeatherDisplay:10.37,2013-02-21 00:45:00,
2013-02-20 18:50:00,61.7,59.7,29.69,ENE,64,0.6,3.5,93,0.00,CLR,,0.04,WeatherDisplay:10.37,2013-02-21 00:50:00,
2013-02-20 18:55:00,61.7,59.7,29.69,ESE,120,1.1,3.5,93,0.00,CLR,,0.04,WeatherDisplay:10.37,2013-02-21 00:55:00,
2013-02-20 19:00:00,61.7,60.0,29.69,East,94,0.0,0.0,94,0.00,CLR,,0.04,WeatherDisplay:10.37,2013-02-21 01:00:00,
2013-02-20 19:05:00,61.7,60.0,29.69,NE,48,0.9,2.3,94,0.00,CLR,,0.04,WeatherDisplay:10.37,2013-02-21 01:05:00,
2013-02-20 19:10:00,61.8,60.1,29.69,ENE,66,0.1,1.2,94,0.00,CLR,,0.04,WeatherDisplay:10.37,2013-02-21 01:10:00,
2013-02-20 19:15:00,61.8,60.1,29.69,ENE,69,0.3,0.0,94,0.00,CLR,,0.04,WeatherDisplay:10.37,2013-02-21 01:15:00,
2013-02-20 19:20:00,61.9,60.2,29.69,ESE,111,1.6,5.8,94,0.00,CLR,,0.04,WeatherDisplay:10.37,2013-02-21 01:20:00,
2013-02-20 19:25:00,61.9,60.2,29.69,ENE,68,0.3,2.3,94,0.00,CLR,,0.04,WeatherDisplay:10.37,2013-02-21 01:25:00,
2013-02-20 19:30:00,61.9,60.2,29.69,NE,41,0.4,2.0,94,0.00,CLR,,0.04,WeatherDisplay:10.37,2013-02-21 01:30:00,
2013-02-20 19:35:00,61.9,60.2,29.69,NE,37,0.1,0.0,94,0.00,CLR,,0.04,WeatherDisplay:10.37,2013-02-21 01:35:00,
2013-02-20 19:40:00,62.0,60.3,29.69,East,83,2.1,3.5,94,0.00,CLR,,0.04,WeatherDisplay:10.37,2013-02-21 01:40:00,
2013-02-20 19:45:00,62.1,60.4,29.68,East,99,1.4,3.5,94,0.01,RA,,0.05,WeatherDisplay:10.37,2013-02-21 01:45:00,
2013-02-20 19:50:00,62.2,60.5,29.68,NE,43,0.2,5.8,94,0.01,RA,,0.05,WeatherDisplay:10.37,2013-02-21 01:50:00,
2013-02-20 19:55:00,62.3,60.6,29.68,ESE,116,0.7,3.5,94,0.01,,,0.05,WeatherDisplay:10.37,2013-02-21 01:55:00,
2013-02-20 20:00:00,62.5,60.7,29.68,ENE,72,2.0,5.8,94,0.01,CLR,,0.05,WeatherDisplay:10.37,2013-02-21 02:00:00,
2013-02-20 20:05:00,62.6,60.8,29.68,ENE,60,0.0,1.2,94,0.01,CLR,,0.05,WeatherDisplay:10.37,2013-02-21 02:05:00,
2013-02-20 20:10:00,62.6,60.8,29.68,SE,125,0.2,2.3,94,0.01,CLR,,0.05,WeatherDisplay:10.37,2013-02-21 02:10:00,
2013-02-20 20:15:00,62.7,60.9,29.67,East,82,0.1,2.0,94,0.01,CLR,,0.05,WeatherDisplay:10.37,2013-02-21 02:15:00,
2013-02-20 20:20:00,62.7,60.9,29.68,SW,232,0.4,2.3,94,0.01,CLR,,0.05,WeatherDisplay:10.37,2013-02-21 02:20:00,
2013-02-20 20:25:00,62.7,61.2,29.67,NE,51,0.0,0.0,95,0.01,CLR,,0.05,WeatherDisplay:10.37,2013-02-21 02:25:00,
2013-02-20 20:30:00,62.9,61.4,29.67,East,97,0.1,2.3,95,0.01,CLR,,0.05,WeatherDisplay:10.37,2013-02-21 02:30:00,
2013-02-20 20:35:00,63.0,61.5,29.67,ESE,110,1.2,3.5,95,0.01,CLR,,0.05,WeatherDisplay:10.37,2013-02-21 02:35:00,
2013-02-20 20:40:00,63.1,61.6,29.67,ESE,113,0.1,1.2,95,0.01,CLR,,0.05,WeatherDisplay:10.37,2013-02-21 02:40:00,
2013-02-20 20:45:00,63.2,61.7,29.66,NE,55,1.3,3.5,95,0.00,CLR,,0.05,WeatherDisplay:10.37,2013-02-21 02:45:00,
2013-02-20 20:50:00,63.2,61.7,29.66,SE,140,0.6,1.2,95,0.00,CLR,,0.05,WeatherDisplay:10.37,2013-02-21 02:50:00,
2013-02-20 20:55:00,63.3,61.8,29.66,East,94,0.1,1.2,95,0.00,CLR,,0.05,WeatherDisplay:10.37,2013-02-21 02:55:00,
2013-02-20 21:00:00,63.5,62.0,29.65,East,99,0.0,0.0,95,0.00,CLR,,0.05,WeatherDisplay:10.37,2013-02-21 03:00:00,
2013-02-20 21:05:00,63.8,62.3,29.65,East,96,0.5,2.3,95,0.00,CLR,,0.05,WeatherDisplay:10.37,2013-02-21 03:05:00,
2013-02-20 21:10:00,64.1,62.6,29.65,SSE,155,0.8,3.5,95,0.00,CLR,,0.05,WeatherDisplay:10.37,2013-02-21 03:10:00,
2013-02-20 21:15:00,64.2,62.7,29.65,SSE,153,0.0,1.2,95,0.00,CLR,,0.05,WeatherDisplay:10.37,2013-02-21 03:15:00,
2013-02-20 21:20:00,64.3,62.8,29.65,ENE,69,0.1,1.2,95,0.00,CLR,,0.05,WeatherDisplay:10.37,2013-02-21 03:20:00,
2013-02-20 21:25:00,64.4,62.9,29.66,ESE,112,0.1,2.3,95,0.00,CLR,,0.05,WeatherDisplay:10.37,2013-02-21 03:25:00,
2013-02-20 21:30:00,64.5,63.0,29.66,SE,137,0.0,1.2,95,0.00,CLR,,0.05,WeatherDisplay:10.37,2013-02-21 03:30:00,
2013-02-20 21:35:00,64.6,63.1,29.66,ESE,117,0.0,2.3,95,0.00,CLR,,0.05,WeatherDisplay:10.37,2013-02-21 03:35:00,
2013-02-20 21:40:00,64.6,63.1,29.66,East,97,0.1,1.2,95,0.00,CLR,,0.05,WeatherDisplay:10.37,2013-02-21 03:40:00,
2013-02-20 21:45:00,64.7,63.2,29.65,ESE,109,0.1,2.3,95,0.00,CLR,,0.05,WeatherDisplay:10.37,2013-02-21 03:45:00,
2013-02-20 21:50:00,64.8,63.3,29.65,ESE,112,0.1,2.3,95,0.00,CLR,,0.05,WeatherDisplay:10.37,2013-02-21 03:50:00,
2013-02-20 21:55:00,64.8,63.3,29.65,NE,42,0.3,1.2,95,0.00,CLR,,0.05,WeatherDisplay:10.37,2013-02-21 03:55:00,
2013-02-20 22:00:00,64.9,63.4,29.65,NNW,327,0.3,2.3,95,0.00,CLR,,0.05,WeatherDisplay:10.37,2013-02-21 04:00:00,
2013-02-20 22:05:00,65.1,63.6,29.65,East,85,0.1,2.3,95,0.00,CLR,,0.05,WeatherDisplay:10.37,2013-02-21 04:05:00,
2013-02-20 22:10:00,65.2,63.7,29.65,SSE,163,1.4,3.5,95,0.00,CLR,,0.05,WeatherDisplay:10.37,2013-02-21 04:10:00,
2013-02-20 22:15:00,65.4,63.9,29.64,SSE,153,1.0,3.5,95,0.00,CLR,,0.05,WeatherDisplay:10.37,2013-02-21 04:15:00,
2013-02-20 22:20:00,65.6,64.1,29.64,SSE,150,0.7,3.5,95,0.00,CLR,,0.05,WeatherDisplay:10.37,2013-02-21 04:20:00,
2013-02-20 22:25:00,65.7,64.2,29.64,SE,144,0.2,1.2,95,0.00,CLR,,0.05,WeatherDisplay:10.37,2013-02-21 04:25:00,
2013-02-20 22:30:00,65.9,64.4,29.64,NW,315,0.5,2.3,95,0.00,CLR,,0.05,WeatherDisplay:10.37,2013-02-21 04:30:00,
2013-02-20 22:35:00,65.9,64.1,29.64,South,184,0.2,1.2,94,0.00,CLR,,0.05,WeatherDisplay:10.37,2013-02-21 04:35:00,
2013-02-20 22:40:00,66.1,64.3,29.64,North,355,0.1,1.2,94,0.00,CLR,,0.05,WeatherDisplay:10.37,2013-02-21 04:40:00,
2013-02-20 22:45:00,66.2,64.4,29.63,South,172,0.7,5.0,94,0.00,CLR,,0.05,WeatherDisplay:10.37,2013-02-21 04:45:00,
2013-02-20 22:50:00,66.3,64.5,29.63,SE,132,0.1,1.2,94,0.00,CLR,,0.05,WeatherDisplay:10.37,2013-02-21 04:50:00,
2013-02-20 22:55:00,66.4,64.6,29.63,South,172,0.1,2.3,94,0.00,CLR,,0.05,WeatherDisplay:10.37,2013-02-21 04:55:00,
2013-02-20 23:00:00,66.4,64.6,29.63,SE,143,0.1,0.0,94,0.00,CLR,,0.05,WeatherDisplay:10.37,2013-02-21 05:00:00,
2013-02-20 23:05:00,66.5,64.7,29.63,SSE,153,0.5,2.3,94,0.00,CLR,,0.05,WeatherDisplay:10.37,2013-02-21 05:05:00,
2013-02-20 23:10:00,66.5,64.4,29.63,NNW,346,0.1,1.2,93,0.00,CLR,,0.05,WeatherDisplay:10.37,2013-02-21 05:10:00,
2013-02-20 23:15:00,66.6,64.5,29.63,SSE,167,0.1,1.2,93,0.00,CLR,,0.05,WeatherDisplay:10.37,2013-02-21 05:15:00,
2013-02-20 23:20:00,66.7,64.6,29.63,ESE,121,0.0,2.3,93,0.00,CLR,,0.05,WeatherDisplay:10.37,2013-02-21 05:20:00,
2013-02-20 23:25:00,66.7,64.6,29.63,NNE,13,0.0,1.2,93,0.00,CLR,,0.05,WeatherDisplay:10.37,2013-02-21 05:25:00,
2013-02-20 23:30:00,66.8,64.7,29.63,WSW,250,0.0,0.0,93,0.00,CLR,,0.05,WeatherDisplay:10.37,2013-02-21 05:30:00,
2013-02-20 23:35:00,66.8,64.7,29.62,SE,145,1.4,4.6,93,0.00,CLR,,0.05,WeatherDisplay:10.37,2013-02-21 05:35:00,
2013-02-20 23:40:00,66.9,64.8,29.62,NW,321,0.0,1.2,93,0.00,CLR,,0.05,WeatherDisplay:10.37,2013-02-21 05:40:00,
2013-02-20 23:45:00,66.9,64.8,29.62,SSE,162,0.2,2.3,93,0.00,CLR,,0.05,WeatherDisplay:10.37,2013-02-21 05:45:00,
2013-02-20 23:50:00,67.0,64.9,29.62,SSE,165,0.0,0.0,93,0.01,RA,,0.06,WeatherDisplay:10.37,2013-02-21 05:50:00,
2013-02-20 23:55:00,67.0,64.9,29.62,SW,229,0.0,1.2,93,0.02,RA,,0.07,WeatherDisplay:10.37,2013-02-21 05:55:00,